Time;durP1;ratioP1;P1;durP2;ratioP2;P2;SDS_P1;SDS_P2;PMS_P1;PMS_P2;Temp;Humidity;BMP_temperature;BMP_pressure;BME280_temperature;BME280_humidity;BME280_pressure;Samples;Min_cycle;Max_cycle;Signal;HPM_P1;HPM_P2
2022/06/16 00:00:21;;;;;;;29.67;8.20;;;;;;;16.10;100.00;96401.97;5029793;28;20466;-74
2022/06/16 00:02:50;;;;;;;23.03;7.80;;;;;;;15.86;100.00;96392.47;5031365;28;20910;-74
2022/06/16 00:05:25;;;;;;;25.63;9.77;;;;;;;15.77;100.00;96381.31;5029932;28;20978;-74
2022/06/16 00:07:53;;;;;;;26.53;8.40;;;;;;;15.56;100.00;96379.03;5029811;28;20967;-75
2022/06/16 00:10:20;;;;;;;30.20;7.87;;;;;;;15.65;100.00;96371.59;5029855;28;20981;-74
2022/06/16 00:12:47;;;;;;;33.57;9.60;;;;;;;15.66;100.00;96394.47;5032697;28;20524;-74
2022/06/16 00:15:18;;;;;;;34.53;8.50;;;;;;;15.78;100.00;96388.19;5033945;28;20489;-74
2022/06/16 00:17:45;;;;;;;43.23;9.43;;;;;;;15.64;100.00;96394.84;5029924;28;20488;-74
2022/06/16 00:20:12;;;;;;;22.93;7.63;;;;;;;15.28;100.00;96390.00;5029781;28;20560;-75
2022/06/16 00:22:39;;;;;;;22.07;7.80;;;;;;;15.07;100.00;96369.06;5029630;28;20437;-74
2022/06/16 00:25:07;;;;;;;28.53;8.37;;;;;;;15.16;100.00;96355.53;5030931;28;20550;-74
2022/06/16 00:27:34;;;;;;;37.87;9.20;;;;;;;15.37;100.00;96375.34;5013004;28;20481;-74
2022/06/16 00:30:01;;;;;;;33.23;8.63;;;;;;;15.49;100.00;96370.91;5012943;28;20462;-74
2022/06/16 00:32:27;;;;;;;27.47;7.60;;;;;;;15.28;100.00;96369.47;5013083;28;20434;-74
2022/06/16 00:34:54;;;;;;;24.27;7.80;;;;;;;15.34;100.00;96364.59;5029390;28;20489;-74
2022/06/16 00:37:21;;;;;;;34.57;7.87;;;;;;;14.48;100.00;96346.31;5044836;28;20430;-74
2022/06/16 00:39:48;;;;;;;24.13;9.07;;;;;;;14.70;100.00;96336.88;5032722;28;20506;-74
2022/06/16 00:42:24;;;;;;;40.90;8.67;;;;;;;15.10;100.00;96360.41;5032697;28;20425;-74
2022/06/16 00:44:57;;;;;;;31.37;8.47;;;;;;;14.83;100.00;96338.25;5032552;28;20458;-74
2022/06/16 00:47:28;;;;;;;38.70;11.40;;;;;;;15.15;100.00;96368.09;5032640;28;20434;-74
2022/06/16 00:49:58;;;;;;;33.33;10.80;;;;;;;14.94;100.00;96362.38;5032663;28;20519;-74
2022/06/16 00:52:30;;;;;;;32.40;7.83;;;;;;;15.04;100.00;96356.47;5050612;28;20429;-74
2022/06/16 00:55:10;;;;;;;14.57;6.67;;;;;;;15.14;100.00;96365.78;5049664;28;20941;-74
2022/06/16 00:57:40;;;;;;;22.30;9.00;;;;;;;14.93;100.00;96336.88;5036845;28;20519;-74
2022/06/16 01:00:16;;;;;;;32.40;7.77;;;;;;;14.97;100.00;96367.78;5053456;28;20453;-74
2022/06/16 01:02:43;;;;;;;29.70;8.10;;;;;;;14.95;100.00;96362.03;5053202;28;20559;-75
2022/06/16 01:05:10;;;;;;;25.77;7.40;;;;;;;14.72;100.00;96346.03;5053084;28;20564;-75
2022/06/16 01:07:40;;;;;;;25.60;8.03;;;;;;;14.96;100.00;96360.94;5053123;28;20437;-75
2022/06/16 01:10:09;;;;;;;28.00;10.17;;;;;;;14.67;100.00;96366.81;5053051;28;20514;-74
2022/06/16 01:16:22;;;;;;;30.17;9.07;;;;;;;14.40;100.00;96379.94;5058520;28;20453;-74
2022/06/16 01:18:58;;;;;;;30.50;9.53;;;;;;;14.63;100.00;96376.63;5038669;28;20511;-74
2022/06/16 01:21:36;;;;;;;28.23;8.90;;;;;;;14.71;100.00;96381.00;5052935;28;20483;-74
2022/06/16 01:24:19;;;;;;;37.07;8.40;;;;;;;14.77;100.00;96382.22;5040044;28;20469;-74
2022/06/16 01:27:11;;;;;;;22.10;6.70;;;;;;;14.80;100.00;96362.88;5033011;28;20462;-75
2022/06/16 01:30:03;;;;;;;27.13;7.67;;;;;;;14.86;100.00;96358.06;5042420;28;20847;-75
2022/06/16 01:32:46;;;;;;;18.07;8.40;;;;;;;14.75;100.00;96373.84;5034798;28;21007;-74
2022/06/16 01:35:49;;;;;;;25.43;6.80;;;;;;;14.59;100.00;96373.91;5052624;28;20524;-74
2022/06/16 01:38:32;;;;;;;23.07;6.97;;;;;;;14.60;100.00;96370.13;5052512;28;20437;-74
2022/06/16 01:41:09;;;;;;;22.80;7.60;;;;;;;14.61;100.00;96369.00;5035950;28;20443;-75
2022/06/16 01:43:53;;;;;;;27.50;8.03;;;;;;;14.55;100.00;96356.31;5052439;28;20448;-74
2022/06/16 01:46:30;;;;;;;36.67;8.20;;;;;;;14.44;100.00;96374.75;5021578;28;20434;-74
2022/06/16 01:49:45;;;;;;;17.30;8.70;;;;;;;14.63;100.00;96381.97;5019057;28;20494;-74
2022/06/16 01:52:20;;;;;;;39.97;11.37;;;;;;;14.47;100.00;96377.47;5032340;28;20491;-74
2022/06/16 01:54:57;;;;;;;35.03;8.23;;;;;;;14.39;100.00;96377.63;5032328;28;20467;-75
2022/06/16 01:57:38;;;;;;;31.40;8.07;;;;;;;14.11;100.00;96373.28;5032275;28;20492;-74
2022/06/16 02:00:14;;;;;;;32.90;9.73;;;;;;;14.24;100.00;96381.13;5032207;28;20458;-74
2022/06/16 02:03:03;;;;;;;33.00;8.60;;;;;;;14.26;100.00;96370.91;5034130;28;20419;-74
2022/06/16 02:05:37;;;;;;;47.47;10.53;;;;;;;13.99;100.00;96375.28;5031883;28;20460;-75
2022/06/16 02:08:19;;;;;;;35.00;9.10;;;;;;;13.99;100.00;96354.78;5032116;28;21011;-74
2022/06/16 02:10:54;;;;;;;33.97;8.30;;;;;;;14.14;100.00;96371.81;5015448;28;20457;-75
2022/06/16 02:13:30;;;;;;;46.10;8.93;;;;;;;14.06;100.00;96357.59;5031699;28;20446;-74
2022/06/16 02:16:21;;;;;;;33.33;9.67;;;;;;;14.21;100.00;96379.94;5015448;28;20538;-74
2022/06/16 02:18:51;;;;;;;33.73;7.77;;;;;;;13.59;100.00;96377.03;5031687;28;20463;-74
2022/06/16 02:21:23;;;;;;;44.17;10.87;;;;;;;13.85;100.00;96362.44;5015227;28;20941;-74
2022/06/16 02:23:51;;;;;;;50.30;10.47;;;;;;;13.82;100.00;96349.84;5031542;28;20503;-74
2022/06/16 02:26:18;;;;;;;37.70;11.20;;;;;;;13.88;100.00;96348.44;5011837;28;20470;-75
2022/06/16 02:28:49;;;;;;;17.13;7.40;;;;;;;13.83;100.00;96362.03;5005067;28;20442;-74
2022/06/16 02:31:30;;;;;;;13.90;6.10;;;;;;;13.64;100.00;96327.44;5011649;28;20479;-74
2022/06/16 02:34:11;;;;;;;20.00;6.37;;;;;;;13.74;100.00;96330.31;5039023;28;20437;-75
2022/06/16 02:36:51;;;;;;;7.87;5.80;;;;;;;13.93;100.00;96352.75;5015236;28;20492;-74
2022/06/16 02:39:21;;;;;;;7.20;4.83;;;;;;;13.81;100.00;96358.94;5031444;28;20469;-74
2022/06/16 02:42:19;;;;;;;17.00;6.00;;;;;;;13.74;100.00;96350.78;5014816;28;20958;-75
2022/06/16 02:44:59;;;;;;;10.90;4.20;;;;;;;13.55;100.00;96343.53;5047958;28;20470;-75
2022/06/16 02:47:58;;;;;;;11.20;5.40;;;;;;;13.52;100.00;96362.84;5014910;28;20850;-74
2022/06/16 02:50:42;;;;;;;12.50;5.40;;;;;;;13.68;100.00;96360.94;5031351;28;20458;-75
2022/06/16 02:53:27;;;;;;;4.60;4.03;;;;;;;13.44;100.00;96330.00;5026988;28;20929;-74
2022/06/16 02:56:01;;;;;;;13.33;5.83;;;;;;;13.68;100.00;96338.91;5019539;28;20461;-74
2022/06/16 02:58:29;;;;;;;6.93;4.33;;;;;;;13.70;100.00;96332.13;5047029;28;20468;-75
2022/06/16 03:00:59;;;;;;;6.37;4.40;;;;;;;14.00;100.00;96366.94;5051039;28;20465;-74
2022/06/16 03:03:30;;;;;;;7.23;4.80;;;;;;;13.50;100.00;96336.63;5050916;28;20535;-74
2022/06/16 03:06:05;;;;;;;7.30;5.03;;;;;;;13.53;100.00;96343.13;5050988;28;20469;-74
2022/06/16 03:08:38;;;;;;;10.20;4.43;;;;;;;13.77;100.00;96347.47;5050802;28;20465;-74
2022/06/16 03:11:06;;;;;;;5.90;4.27;;;;;;;13.85;100.00;96341.19;5034492;28;20445;-74
2022/06/16 03:13:33;;;;;;;5.00;3.93;;;;;;;13.90;100.00;96336.38;5033926;28;20464;-75
2022/06/16 03:16:03;;;;;;;6.03;4.00;;;;;;;14.10;100.00;96347.81;5050822;28;20441;-74
2022/06/16 03:18:32;;;;;;;4.70;4.30;;;;;;;13.94;100.00;96328.47;5033965;28;20457;-74
2022/06/16 03:20:59;;;;;;;4.90;4.43;;;;;;;13.79;100.00;96330.06;5050216;28;20991;-74
2022/06/16 03:23:25;;;;;;;12.03;4.70;;;;;;;13.49;100.00;96337.72;5014365;28;20438;-74
2022/06/16 03:25:53;;;;;;;5.83;5.27;;;;;;;13.06;100.00;96316.53;5030811;28;20501;-74
2022/06/16 03:28:20;;;;;;;5.33;4.73;;;;;;;13.04;100.00;96340.78;5018661;28;20484;-74
2022/06/16 03:30:48;;;;;;;5.00;4.30;;;;;;;13.09;100.00;96337.06;5033192;28;20486;-74
2022/06/16 03:33:18;;;;;;;5.23;4.80;;;;;;;13.49;100.00;96345.69;5030642;28;20465;-75
2022/06/16 03:35:47;;;;;;;8.03;4.87;;;;;;;13.13;100.00;96308.75;5030570;28;20488;-74
2022/06/16 03:40:51;;;;;;;12.50;5.20;;;;;;;13.53;100.00;96332.50;5050139;28;20457;-74
2022/06/16 03:43:18;;;;;;;7.80;4.90;;;;;;;13.68;100.00;96333.59;5050349;28;20453;-74
2022/06/16 03:45:47;;;;;;;11.90;6.00;;;;;;;13.77;100.00;96345.59;5049983;28;20465;-74
2022/06/16 03:48:15;;;;;;;17.57;5.20;;;;;;;13.59;100.00;96349.69;5018379;28;20459;-75
2022/06/16 03:50:44;;;;;;;11.40;5.80;;;;;;;13.69;100.00;96343.88;5026712;28;20466;-75
2022/06/16 03:53:14;;;;;;;24.47;6.73;;;;;;;13.64;100.00;96327.44;5036749;28;20961;-75
2022/06/16 03:55:47;;;;;;;15.80;8.07;;;;;;;13.81;100.00;96346.41;5050020;28;20816;-75
2022/06/16 03:58:16;;;;;;;19.13;7.43;;;;;;;13.70;100.00;96321.50;5048384;28;20476;-75
2022/06/16 04:00:43;;;;;;;13.43;6.97;;;;;;;13.51;100.00;96316.91;5029975;28;20497;-75
2022/06/16 04:05:57;;;;;;;21.07;7.27;;;;;;;13.46;100.00;96345.59;5029828;28;20989;-74
2022/06/16 04:08:24;;;;;;;17.27;6.70;;;;;;;13.25;100.00;96321.97;5035277;28;20465;-74
2022/06/16 04:10:53;;;;;;;23.90;6.47;;;;;;;13.30;100.00;96321.72;5049759;28;20444;-75
2022/06/16 04:13:21;;;;;;;21.33;8.27;;;;;;;13.39;100.00;96356.84;5033105;28;20449;-74
2022/06/16 04:15:53;;;;;;;22.80;6.73;;;;;;;13.45;100.00;96328.88;5034120;28;20440;-74
2022/06/16 04:18:22;;;;;;;22.67;6.87;;;;;;;13.70;100.00;96358.69;5049768;28;20445;-74
2022/06/16 04:20:49;;;;;;;18.43;6.67;;;;;;;12.98;100.00;96327.00;5020039;28;20832;-75
2022/06/16 04:23:42;;;;;;;16.73;7.53;;;;;;;13.11;100.00;96325.03;5031292;28;20652;-75
2022/06/16 04:26:09;;;;;;;24.57;7.37;;;;;;;13.57;100.00;96328.78;5031332;28;20979;-75
2022/06/16 04:28:42;;;;;;;13.87;7.23;;;;;;;13.54;100.00;96334.81;5013380;28;20449;-74
2022/06/16 04:31:09;;;;;;;15.20;5.70;;;;;;;14.08;100.00;96341.28;5027093;28;20461;-74
2022/06/16 04:33:37;;;;;;;11.90;5.57;;;;;;;14.32;100.00;96353.56;5030411;28;20493;-74
2022/06/16 04:36:08;;;;;;;16.60;6.10;;;;;;;14.70;100.00;96353.59;5029802;28;20435;-74
2022/06/16 04:38:40;;;;;;;13.53;6.20;;;;;;;14.88;100.00;96372.56;5029406;28;20454;-74
2022/06/16 04:41:07;;;;;;;12.70;7.90;;;;;;;14.56;100.00;96344.59;5009689;28;20431;-75
2022/06/16 04:43:34;;;;;;;10.27;6.20;;;;;;;14.66;100.00;96360.72;5022854;28;20473;-75
2022/06/16 04:46:04;;;;;;;12.97;5.87;;;;;;;14.70;100.00;96356.25;5029135;28;20477;-75
2022/06/16 04:48:39;;;;;;;11.13;6.17;;;;;;;14.76;100.00;96354.06;5029122;28;20481;-75
2022/06/16 04:51:14;;;;;;;8.60;5.57;;;;;;;14.79;100.00;96337.41;5029269;28;20903;-74
2022/06/16 04:53:45;;;;;;;8.30;5.73;;;;;;;14.63;100.00;96342.81;5029221;28;20445;-75
2022/06/16 04:56:19;;;;;;;8.90;5.80;;;;;;;14.90;100.00;96359.66;5029254;28;20465;-74
2022/06/16 04:58:58;;;;;;;15.90;7.20;;;;;;;14.87;100.00;96347.06;5029039;28;20569;-74
2022/06/16 05:01:34;;;;;;;14.43;7.10;;;;;;;15.16;100.00;96361.63;5029113;28;20536;-74
2022/06/16 05:04:27;;;;;;;15.17;5.47;;;;;;;15.31;100.00;96366.06;5027328;28;20442;-74
2022/06/16 05:07:12;;;;;;;21.17;7.17;;;;;;;15.23;100.00;96356.44;5049157;28;20445;-74
2022/06/16 05:09:59;;;;;;;13.10;7.00;;;;;;;15.53;100.00;96364.53;5049823;28;20462;-74
2022/06/16 05:12:38;;;;;;;19.33;7.63;;;;;;;16.00;100.00;96359.91;5048832;28;20456;-74
2022/06/16 05:15:13;;;;;;;24.27;8.40;;;;;;;16.03;100.00;96380.56;5048910;28;20437;-74
2022/06/16 05:18:15;;;;;;;16.57;6.93;;;;;;;16.11;100.00;96350.16;5016253;28;20499;-75
2022/06/16 05:21:09;;;;;;;9.83;5.40;;;;;;;16.35;100.00;96371.06;5048838;28;20448;-74
2022/06/16 05:23:55;;;;;;;15.53;6.90;;;;;;;16.38;100.00;96386.34;5037774;28;20548;-74
2022/06/16 05:26:40;;;;;;;11.83;6.37;;;;;;;16.44;100.00;96390.25;5028838;28;20474;-75
2022/06/16 05:29:25;;;;;;;9.50;5.33;;;;;;;16.28;100.00;96368.28;5027004;28;20615;-75
2022/06/16 05:32:12;;;;;;;9.13;5.00;;;;;;;16.44;100.00;96378.81;5030473;28;20417;-75
2022/06/16 05:35:05;;;;;;;7.60;4.83;;;;;;;16.30;100.00;96381.28;5028351;28;20950;-74
2022/06/16 05:37:38;;;;;;;14.90;6.13;;;;;;;16.42;100.00;96365.03;5013356;28;20435;-74
2022/06/16 05:40:38;;;;;;;6.07;4.57;;;;;;;16.81;100.00;96374.28;5000628;28;20472;-74
2022/06/16 05:43:25;;;;;;;6.57;5.97;;;;;;;17.16;100.00;96399.09;5018967;28;20434;-74
2022/06/16 05:46:19;;;;;;;4.80;4.40;;;;;;;17.37;100.00;96392.06;5038878;28;20475;-74
2022/06/16 05:48:55;;;;;;;4.50;4.10;;;;;;;17.25;100.00;96367.50;5052136;28;20504;-75
2022/06/16 05:51:23;;;;;;;5.20;3.90;;;;;;;17.70;100.00;96383.19;5041704;28;21031;-75
2022/06/16 05:53:58;;;;;;;7.10;3.57;;;;;;;17.84;96.61;96398.56;5032317;28;20445;-74
2022/06/16 05:56:29;;;;;;;4.20;3.80;;;;;;;18.07;94.70;96398.34;5044692;28;20436;-74
2022/06/16 05:58:56;;;;;;;4.27;3.83;;;;;;;18.55;93.19;96396.28;5035523;28;20476;-75
2022/06/16 06:01:24;;;;;;;3.67;3.37;;;;;;;18.90;91.50;96413.69;5052138;28;20445;-74
2022/06/16 06:04:06;;;;;;;3.90;3.60;;;;;;;19.25;88.48;96406.91;5006807;28;20445;-75
2022/06/16 06:06:34;;;;;;;3.50;3.30;;;;;;;19.64;84.30;96420.38;5031532;28;20472;-75
2022/06/16 06:17:22;;;;;;;3.23;2.93;;;;;;;19.91;83.45;96415.41;5032060;28;20514;-74
2022/06/16 06:19:52;;;;;;;4.63;3.97;;;;;;;19.92;82.55;96406.97;5031880;28;20474;-75
2022/06/16 06:22:24;;;;;;;3.70;3.40;;;;;;;19.91;80.20;96426.13;5032088;28;20586;-74
2022/06/16 06:24:59;;;;;;;4.23;3.30;;;;;;;20.25;80.70;96427.25;5018949;28;20481;-74
2022/06/16 06:27:33;;;;;;;3.97;3.67;;;;;;;20.66;77.21;96432.16;5031827;28;20434;-75
2022/06/16 06:30:07;;;;;;;3.13;2.93;;;;;;;20.95;76.65;96432.81;5021258;28;20487;-75
2022/06/16 06:32:34;;;;;;;5.20;4.00;;;;;;;20.99;76.07;96419.38;5018615;28;20493;-75
2022/06/16 06:35:01;;;;;;;5.90;4.57;;;;;;;21.22;74.52;96423.06;5015910;28;20446;-75
2022/06/16 06:37:29;;;;;;;4.40;4.10;;;;;;;21.21;74.55;96413.47;5016000;28;20525;-75
2022/06/16 06:39:56;;;;;;;4.30;3.97;;;;;;;21.33;75.49;96430.34;5015698;28;20462;-75
2022/06/16 06:42:23;;;;;;;6.83;3.93;;;;;;;21.28;75.85;96415.38;5032117;28;20488;-75
2022/06/16 06:44:51;;;;;;;4.20;3.90;;;;;;;21.39;75.72;96418.03;5051403;28;20444;-75
2022/06/16 06:47:24;;;;;;;6.27;4.00;;;;;;;21.67;74.40;96439.34;5034903;28;20457;-75
2022/06/16 06:49:51;;;;;;;4.87;4.00;;;;;;;22.10;74.47;96439.03;5034951;28;20454;-77
2022/06/16 06:52:19;;;;;;;4.40;4.00;;;;;;;21.79;74.41;96413.88;5050917;28;20488;-75
2022/06/16 06:54:46;;;;;;;5.07;4.57;;;;;;;22.33;72.92;96443.81;5034457;28;20859;-75
2022/06/16 06:57:17;;;;;;;4.60;4.10;;;;;;;21.89;72.86;96423.78;5034785;28;20461;-75
2022/06/16 06:59:44;;;;;;;5.10;4.30;;;;;;;21.83;73.68;96423.44;5051190;28;20464;-75
2022/06/16 07:02:12;;;;;;;5.37;4.10;;;;;;;21.78;73.40;96428.50;5052260;28;20842;-75
2022/06/16 07:04:40;;;;;;;4.07;3.50;;;;;;;22.34;71.08;96438.03;5050989;28;20448;-75
2022/06/16 07:07:10;;;;;;;4.30;3.90;;;;;;;22.57;71.02;96445.50;5010984;28;21086;-75
2022/06/16 07:09:37;;;;;;;4.50;4.10;;;;;;;22.75;70.05;96420.28;5018259;28;20520;-75
2022/06/16 07:12:13;;;;;;;6.50;4.33;;;;;;;22.43;70.93;96434.84;5034195;28;20429;-75
2022/06/16 07:14:45;;;;;;;4.37;3.63;;;;;;;23.26;69.99;96438.16;5050813;28;20417;-75
2022/06/16 07:17:13;;;;;;;5.00;4.37;;;;;;;23.73;67.31;96435.56;5034138;28;20433;-75
2022/06/16 07:19:40;;;;;;;5.67;4.53;;;;;;;23.44;67.86;96435.97;5050439;28;20610;-75
2022/06/16 07:22:07;;;;;;;4.43;4.10;;;;;;;23.38;66.91;96432.22;5034233;28;20855;-75
2022/06/16 07:24:35;;;;;;;6.20;3.60;;;;;;;22.78;69.66;96412.13;5034711;28;20617;-75
2022/06/16 07:27:03;;;;;;;5.43;4.77;;;;;;;22.77;69.50;96429.47;5030607;28;20470;-75
2022/06/16 07:29:30;;;;;;;3.83;3.43;;;;;;;23.04;68.97;96428.81;5030763;28;20462;-75
2022/06/16 07:32:05;;;;;;;4.23;3.83;;;;;;;23.59;68.47;96423.81;5050310;28;20448;-75
2022/06/16 07:34:32;;;;;;;4.37;3.97;;;;;;;23.06;67.12;96340.91;5050401;28;20494;-75
2022/06/16 07:36:59;;;;;;;5.77;4.67;;;;;;;23.76;66.54;96416.59;5050122;28;20495;-75
2022/06/16 07:39:26;;;;;;;5.83;5.33;;;;;;;23.03;67.20;96392.22;5033553;28;20484;-75
2022/06/16 07:41:53;;;;;;;4.77;4.37;;;;;;;22.48;69.64;96377.84;5050555;28;20426;-75
2022/06/16 07:44:20;;;;;;;12.10;3.90;;;;;;;22.84;69.53;96409.81;5033423;28;20480;-75
2022/06/16 07:46:47;;;;;;;7.13;4.33;;;;;;;23.11;69.33;96416.00;5049852;28;20496;-75
2022/06/16 07:49:21;;;;;;;4.37;4.07;;;;;;;23.97;68.20;96420.91;5049706;28;20461;-75
2022/06/16 07:51:49;;;;;;;5.77;4.57;;;;;;;24.34;64.50;96401.00;5019361;28;20810;-75
2022/06/16 07:54:17;;;;;;;5.17;4.40;;;;;;;24.20;63.78;96393.09;5013594;28;20457;-75
2022/06/16 07:57:04;;;;;;;5.33;4.23;;;;;;;24.64;64.67;96423.59;5016369;28;20938;-75
2022/06/16 07:59:31;;;;;;;3.90;3.50;;;;;;;24.57;63.99;96410.19;5029853;28;20585;-75
2022/06/16 08:01:58;;;;;;;6.00;4.30;;;;;;;25.06;63.84;96430.13;5029795;28;20500;-75
2022/06/16 08:04:26;;;;;;;4.87;4.33;;;;;;;25.54;60.74;96421.34;5031060;28;20430;-75
2022/06/16 08:06:53;;;;;;;4.50;4.20;;;;;;;25.22;61.29;96427.44;5029602;28;20468;-75
2022/06/16 08:09:20;;;;;;;5.00;4.53;;;;;;;24.66;61.92;96427.41;5030803;28;20884;-75
2022/06/16 08:12:05;;;;;;;7.90;5.03;;;;;;;23.81;64.13;96412.69;5029425;28;20507;-75
2022/06/16 08:14:36;;;;;;;4.67;4.17;;;;;;;24.63;61.03;96414.72;5029636;28;20469;-75
2022/06/16 08:17:04;;;;;;;7.73;3.87;;;;;;;25.00;60.01;96434.47;5029563;28;20441;-75
2022/06/16 08:19:31;;;;;;;5.20;4.30;;;;;;;24.98;60.06;96409.78;5029391;28;20997;-75
2022/06/16 08:21:57;;;;;;;4.40;3.93;;;;;;;25.15;59.82;96419.50;5013236;28;20466;-75
2022/06/16 08:24:25;;;;;;;4.87;4.17;;;;;;;25.45;59.57;96420.38;5030938;28;20922;-75
2022/06/16 08:26:51;;;;;;;6.43;4.63;;;;;;;25.52;58.43;96425.66;5029347;28;20766;-75
2022/06/16 08:29:18;;;;;;;8.53;4.60;;;;;;;24.89;61.23;96409.59;5027183;28;20459;-75
2022/06/16 08:31:45;;;;;;;5.60;4.10;;;;;;;25.57;59.00;96438.69;5029354;28;20477;-75
2022/06/16 08:34:12;;;;;;;4.20;3.73;;;;;;;25.85;59.38;96405.53;5028299;28;20446;-75
2022/06/16 08:36:39;;;;;;;5.83;4.13;;;;;;;26.39;58.21;96417.75;5012999;28;20454;-75
2022/06/16 08:39:08;;;;;;;4.90;3.37;;;;;;;26.65;55.17;96448.47;5029122;28;20490;-75
2022/06/16 08:42:09;;;;;;;5.80;3.80;;;;;;;26.55;55.02;96438.66;5030607;28;20434;-75
2022/06/16 08:44:42;;;;;;;4.17;3.67;;;;;;;26.30;52.39;96450.09;4998678;28;20443;-75
2022/06/16 08:47:22;;;;;;;5.67;3.67;;;;;;;26.52;51.40;96440.28;5026970;28;20454;-75
2022/06/16 08:49:59;;;;;;;6.80;3.37;;;;;;;26.44;52.35;96439.72;5029135;28;20493;-75
2022/06/16 08:52:47;;;;;;;5.50;3.40;;;;;;;26.19;53.72;96426.00;5030501;28;20793;-75
2022/06/16 08:55:29;;;;;;;3.70;3.50;;;;;;;26.34;52.87;96440.72;5030626;28;20441;-75
2022/06/16 08:57:56;;;;;;;3.30;3.03;;;;;;;25.76;52.01;96432.44;5040846;28;20468;-75
2022/06/16 09:00:38;;;;;;;3.63;3.33;;;;;;;25.72;50.59;96431.78;5032298;28;20552;-75
2022/06/16 09:03:14;;;;;;;6.20;3.50;;;;;;;26.07;50.31;96456.50;5031971;28;20476;-75
2022/06/16 09:05:57;;;;;;;3.50;3.23;;;;;;;26.03;50.61;96456.56;5012590;28;20438;-75
2022/06/16 09:08:45;;;;;;;4.70;3.87;;;;;;;25.74;52.05;96461.91;5030433;28;20446;-75
2022/06/16 09:11:44;;;;;;;3.83;3.40;;;;;;;26.07;50.52;96456.50;5029187;28;20458;-75
2022/06/16 09:15:10;;;;;;;6.03;3.77;;;;;;;25.97;50.54;96462.94;4996144;28;20931;-75
2022/06/16 09:17:27;;;;;;;3.63;3.33;;;;;;;26.16;51.34;96464.78;5030693;28;20429;-75
2022/06/16 09:20:26;;;;;;;4.03;3.73;;;;;;;26.72;49.76;96459.13;5052641;28;20464;-75
2022/06/16 09:23:14;;;;;;;3.10;2.77;;;;;;;26.45;47.97;96464.88;5032895;28;20437;-75
2022/06/16 09:26:20;;;;;;;3.20;2.90;;;;;;;26.44;50.23;96450.56;5034065;28;20437;-75
2022/06/16 09:28:50;;;;;;;3.83;3.53;;;;;;;26.77;49.51;96443.06;5011112;28;20521;-75
2022/06/16 09:31:25;;;;;;;3.23;3.03;;;;;;;26.72;49.54;96459.13;5035445;28;20782;-75
2022/06/16 09:34:00;;;;;;;3.50;3.00;;;;;;;26.15;48.65;96449.72;5017657;28;20521;-75
2022/06/16 09:36:34;;;;;;;3.17;2.97;;;;;;;26.81;48.22;96459.25;5035525;28;20458;-75
2022/06/16 09:39:22;;;;;;;3.53;3.33;;;;;;;26.89;45.95;96452.44;5035334;28;20527;-75
2022/06/16 09:42:35;;;;;;;4.00;3.00;;;;;;;27.45;46.19;96456.69;5034567;28;20517;-75
2022/06/16 09:45:21;;;;;;;3.23;2.93;;;;;;;27.88;44.73;96467.00;5034226;28;20484;-75
2022/06/16 09:47:54;;;;;;;3.33;3.03;;;;;;;26.75;45.51;96467.16;5034946;28;20524;-75
2022/06/16 09:50:28;;;;;;;3.70;3.30;;;;;;;27.04;45.89;96431.88;5034775;28;20441;-75
2022/06/16 09:53:37;;;;;;;2.93;2.53;;;;;;;27.09;44.73;96465.84;5034049;28;20792;-75
2022/06/16 09:56:12;;;;;;;3.53;3.23;;;;;;;26.91;45.20;96452.78;5033827;28;20503;-75
2022/06/16 09:59:02;;;;;;;3.50;2.87;;;;;;;26.56;46.51;96467.28;5033672;28;20910;-75
2022/06/16 10:01:35;;;;;;;3.43;3.13;;;;;;;26.67;45.58;96467.78;5034972;28;20418;-74
2022/06/16 10:04:07;;;;;;;3.30;3.00;;;;;;;27.26;43.16;96480.13;5037098;28;20479;-75
2022/06/16 10:07:02;;;;;;;3.77;3.40;;;;;;;27.49;41.90;96487.22;5034004;28;20469;-75
2022/06/16 10:09:53;;;;;;;3.20;3.00;;;;;;;27.23;42.29;96483.69;5038136;28;20458;-74
2022/06/16 10:12:28;;;;;;;6.30;3.30;;;;;;;27.04;42.32;96471.84;5018411;28;20595;-75
2022/06/16 10:15:14;;;;;;;3.63;3.33;;;;;;;26.79;42.74;96480.63;5033315;28;20442;-75
2022/06/16 10:17:43;;;;;;;4.17;3.73;;;;;;;26.63;42.43;96448.13;5033324;28;20466;-75
2022/06/16 10:20:13;;;;;;;4.07;3.77;;;;;;;26.69;43.22;96482.44;5013758;28;20490;-75
2022/06/16 10:22:46;;;;;;;5.47;3.40;;;;;;;26.57;44.15;96476.94;5033270;28;20446;-75
2022/06/16 10:25:23;;;;;;;4.90;3.30;;;;;;;26.98;43.16;96485.16;5033862;28;20957;-75
2022/06/16 10:28:16;;;;;;;4.67;3.53;;;;;;;26.52;42.12;96464.69;5033869;28;20502;-75
2022/06/16 10:30:42;;;;;;;3.27;2.97;;;;;;;26.48;43.17;96453.16;5030914;28;20450;-75
2022/06/16 10:33:19;;;;;;;3.57;3.27;;;;;;;26.68;43.51;96489.06;5034544;28;20961;-75
2022/06/16 10:35:56;;;;;;;3.60;3.30;;;;;;;26.83;42.69;96473.16;5034308;28;20423;-75
2022/06/16 10:38:39;;;;;;;4.37;3.70;;;;;;;26.47;43.53;96484.97;5044718;28;20483;-75
2022/06/16 10:41:25;;;;;;;3.23;3.03;;;;;;;26.18;43.70;96484.13;5056940;28;20429;-74
2022/06/16 10:43:54;;;;;;;4.13;3.77;;;;;;;26.34;43.61;96486.81;5042910;28;20431;-74
2022/06/16 10:46:27;;;;;;;3.87;3.57;;;;;;;26.60;43.96;96482.31;5039373;28;20433;-75
2022/06/16 10:48:56;;;;;;;5.63;3.27;;;;;;;26.72;45.16;96484.31;5035674;28;20496;-75
2022/06/16 10:51:25;;;;;;;4.80;3.27;;;;;;;26.78;44.07;96479.88;5032897;28;20470;-75
2022/06/16 10:54:20;;;;;;;7.00;3.60;;;;;;;26.77;42.55;96486.50;5032569;28;20487;-75
2022/06/16 10:56:47;;;;;;;5.10;3.53;;;;;;;26.48;42.58;96481.06;5031831;28;20488;-74
2022/06/16 10:59:14;;;;;;;4.57;4.27;;;;;;;26.95;43.37;96485.22;5015400;28;20489;-74
2022/06/16 11:01:53;;;;;;;3.50;3.10;;;;;;;26.56;42.23;96486.28;5033265;28;20468;-74
2022/06/16 11:04:26;;;;;;;3.47;3.27;;;;;;;26.65;42.13;96483.72;5031872;28;20926;-74
2022/06/16 11:06:55;;;;;;;4.23;3.50;;;;;;;26.52;42.16;96472.81;5031545;28;20466;-74
2022/06/16 11:09:25;;;;;;;4.17;3.37;;;;;;;26.28;41.52;96457.91;5015126;28;20903;-74
2022/06/16 11:11:53;;;;;;;5.03;3.03;;;;;;;26.66;40.97;96482.53;5033023;28;20950;-74
2022/06/16 11:14:33;;;;;;;8.77;6.50;;;;;;;27.08;41.58;96486.06;5014876;28;20521;-74
2022/06/16 11:17:06;;;;;;;4.67;4.27;;;;;;;26.98;41.35;96476.25;5015072;28;20434;-74
2022/06/16 11:19:46;;;;;;;3.83;3.53;;;;;;;27.34;42.40;96486.88;5031278;28;20462;-74
2022/06/16 11:22:15;;;;;;;3.50;3.20;;;;;;;27.19;42.07;96485.75;5031319;28;20445;-74
2022/06/16 11:24:59;;;;;;;4.10;3.70;;;;;;;26.87;41.85;96483.91;5031015;28;20446;-74
2022/06/16 11:27:28;;;;;;;5.07;4.57;;;;;;;26.59;41.70;96458.31;5011797;28;20467;-74
2022/06/16 11:29:55;;;;;;;4.00;3.13;;;;;;;26.76;42.24;96476.06;5027343;28;20874;-74
2022/06/16 11:32:28;;;;;;;7.77;4.10;;;;;;;26.92;41.96;96481.44;5031757;28;20441;-74
2022/06/16 11:34:55;;;;;;;4.00;3.60;;;;;;;27.05;41.38;96470.63;5014202;28;21013;-73
2022/06/16 11:37:38;;;;;;;3.83;3.43;;;;;;;27.17;42.45;96467.19;5012874;28;20447;-73
2022/06/16 11:40:31;;;;;;;4.60;3.53;;;;;;;26.89;42.89;96463.31;5029908;28;20878;-73
2022/06/16 11:43:04;;;;;;;5.33;4.13;;;;;;;27.13;42.46;96474.69;5013951;28;20438;-74
2022/06/16 11:45:39;;;;;;;3.90;3.60;;;;;;;27.44;41.61;96479.59;5031664;28;20960;-74
2022/06/16 11:48:29;;;;;;;4.83;4.20;;;;;;;27.65;41.77;96465.41;5010634;28;20463;-74
2022/06/16 11:50:55;;;;;;;8.77;4.27;;;;;;;26.69;42.78;96473.53;5033366;28;20824;-74
2022/06/16 11:53:35;;;;;;;25.67;4.30;;;;;;;27.75;42.97;96474.41;5050155;28;20481;-74
2022/06/16 11:56:27;;;;;;;3.80;3.47;;;;;;;28.48;42.05;96481.41;5049917;28;20971;-74
2022/06/16 11:59:35;;;;;;;5.23;4.53;;;;;;;28.19;41.03;96481.56;5049805;28;20507;-74
2022/06/16 12:02:15;;;;;;;4.93;4.50;;;;;;;28.06;41.24;96482.78;5044426;28;20560;-74
2022/06/16 12:05:09;;;;;;;3.80;3.50;;;;;;;27.62;42.41;96453.41;5049928;28;20571;-74
2022/06/16 12:08:10;;;;;;;6.30;4.23;;;;;;;27.23;43.67;96479.03;5050189;28;20485;-74
2022/06/16 12:10:50;;;;;;;5.80;4.00;;;;;;;27.11;43.58;96460.75;5049559;28;20938;-74
2022/06/16 12:13:36;;;;;;;4.77;4.37;;;;;;;27.72;42.97;96478.78;5049613;28;20461;-74
2022/06/16 12:16:16;;;;;;;5.57;4.30;;;;;;;27.24;45.84;96472.41;5051043;28;20516;-74
2022/06/16 12:19:02;;;;;;;5.90;5.30;;;;;;;26.65;46.95;96457.34;5049686;28;20476;-74
2022/06/16 12:21:52;;;;;;;5.30;4.60;;;;;;;26.69;47.07;96462.69;5051164;28;20433;-74